createdAt,value
2022-11-21T00:01:19.951Z,3.28
2022-11-21T00:03:47.662Z,3.00
2022-11-21T00:06:17.430Z,3.45
2022-11-21T00:08:46.267Z,2.70
2022-11-21T00:11:14.464Z,3.30
2022-11-21T00:13:42.978Z,2.72
2022-11-21T00:16:14.012Z,2.63
2022-11-21T00:18:42.340Z,2.70
2022-11-21T00:21:13.634Z,3.30
2022-11-21T00:23:42.721Z,3.40
2022-11-21T00:26:12.272Z,3.13
2022-11-21T00:28:40.000Z,3.80
2022-11-21T00:31:08.287Z,2.47
2022-11-21T00:33:37.233Z,3.30
2022-11-21T00:36:09.539Z,3.47
2022-11-21T00:38:37.508Z,2.95
2022-11-21T00:41:07.170Z,2.80
2022-11-21T00:43:35.219Z,3.63
2022-11-21T00:46:03.302Z,3.25
2022-11-21T00:48:32.121Z,3.45
2022-11-21T00:51:00.458Z,4.07
2022-11-21T00:53:28.210Z,3.13
2022-11-21T00:55:55.952Z,3.38
2022-11-21T00:58:24.996Z,2.83
2022-11-21T01:00:52.670Z,3.10
2022-11-21T01:03:20.448Z,3.33
2022-11-21T01:05:48.134Z,2.90
2022-11-21T01:08:15.841Z,3.15
2022-11-21T01:10:43.513Z,2.90
2022-11-21T01:13:11.218Z,2.85
2022-11-21T01:15:40.237Z,2.33
2022-11-21T01:18:07.872Z,2.70
2022-11-21T01:20:35.556Z,2.55
2022-11-21T01:23:03.231Z,2.55
2022-11-21T01:25:30.870Z,2.80
2022-11-21T01:27:58.558Z,3.97
2022-11-21T01:30:26.269Z,2.58
2022-11-21T01:32:55.285Z,2.95
2022-11-21T01:35:23.001Z,3.33
2022-11-21T01:37:50.890Z,3.10
2022-11-21T01:40:18.747Z,3.05
2022-11-21T01:42:59.565Z,2.72
2022-11-21T01:45:56.186Z,2.70
2022-11-21T01:48:29.917Z,2.83
2022-11-21T01:51:02.167Z,2.38
2022-11-21T01:53:30.231Z,2.38
2022-11-21T01:55:58.052Z,2.90
2022-11-21T01:58:26.534Z,2.97
2022-11-21T02:00:54.785Z,3.00
2022-11-21T02:03:28.546Z,2.80
2022-11-21T02:05:57.151Z,2.65
2022-11-21T02:08:27.385Z,3.25
2022-11-21T02:11:05.105Z,2.40
2022-11-21T02:13:32.840Z,2.78
2022-11-21T02:16:00.588Z,2.17
2022-11-21T02:18:29.683Z,2.58
2022-11-21T02:21:08.010Z,2.80
2022-11-21T02:23:41.556Z,2.60
2022-11-21T02:26:11.884Z,2.95
2022-11-21T02:28:39.585Z,2.58
2022-11-21T02:31:07.261Z,3.60
2022-11-21T02:33:35.262Z,2.75
2022-11-21T02:36:04.088Z,2.78
2022-11-21T02:38:36.217Z,3.70
2022-11-21T02:41:09.589Z,3.22
2022-11-21T02:43:43.563Z,2.58
2022-11-21T02:46:11.406Z,2.92
2022-11-21T02:48:39.764Z,3.00
2022-11-21T02:51:07.722Z,3.03
2022-11-21T02:53:35.427Z,3.40
2022-11-21T02:56:03.091Z,3.03
2022-11-21T02:58:31.085Z,4.10
2022-11-21T03:01:00.199Z,3.28
2022-11-21T03:03:28.007Z,4.15
2022-11-21T03:05:56.852Z,3.95
2022-11-21T03:08:24.487Z,4.30
2022-11-21T03:10:52.129Z,3.67
2022-11-21T03:13:20.378Z,4.47
2022-11-21T03:15:48.033Z,3.20
2022-11-21T03:18:17.180Z,4.30
2022-11-21T03:20:44.807Z,3.90
2022-11-21T03:23:13.850Z,3.42
2022-11-21T03:25:41.542Z,3.13
2022-11-21T03:28:09.254Z,3.17
2022-11-21T03:30:37.029Z,3.00
2022-11-21T03:33:04.815Z,3.13
2022-11-21T03:35:33.840Z,3.20
2022-11-21T03:38:01.536Z,3.63
2022-11-21T03:40:29.218Z,3.40
2022-11-21T03:42:56.932Z,3.05
2022-11-21T03:45:24.645Z,4.10
2022-11-21T03:47:52.346Z,3.30
2022-11-21T03:50:21.595Z,3.47
2022-11-21T03:52:50.641Z,3.08
2022-11-21T03:55:18.325Z,3.00
2022-11-21T03:57:45.980Z,3.13
2022-11-21T04:00:15.187Z,4.03
2022-11-21T04:02:42.867Z,3.38
2022-11-21T04:05:10.789Z,4.38
2022-11-21T04:07:38.509Z,3.47
2022-11-21T04:10:08.430Z,2.80
2022-11-21T04:12:36.220Z,3.08
2022-11-21T04:15:06.114Z,3.58
2022-11-21T04:17:37.049Z,3.70
2022-11-21T04:20:05.333Z,2.90
2022-11-21T04:22:33.002Z,3.05
2022-11-21T04:25:00.694Z,3.00
2022-11-21T04:27:29.680Z,3.65
2022-11-21T04:29:57.346Z,3.83
2022-11-21T04:32:25.026Z,3.42
2022-11-21T04:34:52.708Z,2.85
2022-11-21T04:37:20.427Z,3.80
2022-11-21T04:39:48.133Z,4.03
2022-11-21T04:42:15.807Z,3.78
2022-11-21T04:44:44.842Z,3.20
2022-11-21T04:47:12.502Z,3.53
2022-11-21T04:49:40.209Z,3.17
2022-11-21T04:52:08.019Z,3.30
2022-11-21T04:54:35.703Z,3.13
2022-11-21T04:57:03.351Z,3.22
2022-11-21T04:59:31.056Z,3.95
2022-11-21T05:02:00.116Z,3.40
2022-11-21T05:04:28.163Z,4.10
2022-11-21T05:06:56.036Z,3.50
2022-11-21T05:09:23.697Z,3.45
2022-11-21T05:12:08.735Z,3.22
2022-11-21T05:14:36.405Z,3.15
2022-11-21T05:17:05.392Z,3.10
2022-11-21T05:19:33.074Z,3.13
2022-11-21T05:22:00.725Z,3.10
2022-11-21T05:24:28.591Z,3.33
2022-11-21T05:26:56.547Z,3.20
2022-11-21T05:29:28.071Z,3.40
2022-11-21T05:31:56.066Z,3.20
2022-11-21T05:34:25.253Z,2.83
2022-11-21T05:36:57.068Z,4.63
2022-11-21T05:39:25.456Z,2.92
2022-11-21T05:41:55.270Z,2.75
2022-11-21T05:44:25.279Z,3.88
2022-11-21T05:46:53.172Z,2.83
2022-11-21T05:49:21.302Z,3.33
2022-11-21T05:51:50.484Z,2.58
2022-11-21T05:54:18.251Z,3.25
2022-11-21T05:56:45.968Z,2.80
2022-11-21T05:59:13.773Z,3.00
2022-11-21T06:01:59.296Z,3.03
2022-11-21T06:04:27.382Z,3.10
2022-11-21T06:06:56.545Z,3.40
2022-11-21T06:09:24.219Z,2.55
2022-11-21T06:11:51.891Z,3.20
2022-11-21T06:14:19.527Z,3.97
2022-11-21T06:16:47.277Z,3.55
2022-11-21T06:19:15.005Z,3.25
2022-11-21T06:21:42.714Z,4.00
2022-11-21T06:24:12.178Z,2.92
2022-11-21T06:26:39.865Z,3.60
2022-11-21T06:29:07.557Z,3.47
2022-11-21T06:31:35.236Z,4.22
2022-11-21T06:34:03.268Z,3.33
2022-11-21T06:36:31.006Z,3.78
2022-11-21T06:38:58.677Z,3.17
2022-11-21T06:41:30.248Z,4.32
2022-11-21T06:44:00.720Z,3.08
2022-11-21T06:46:28.809Z,3.70
2022-11-21T06:48:56.518Z,3.78
2022-11-21T06:51:26.026Z,3.53
2022-11-21T06:53:55.806Z,3.20
2022-11-21T06:56:23.942Z,3.30
2022-11-21T06:58:53.033Z,3.25
2022-11-21T07:01:20.813Z,3.70
2022-11-21T07:03:48.853Z,3.53
2022-11-21T07:06:16.589Z,3.38
2022-11-21T07:08:44.286Z,4.25
2022-11-21T07:11:29.041Z,3.85
2022-11-21T07:13:58.090Z,3.42
2022-11-21T07:16:26.382Z,2.88
2022-11-21T07:18:54.289Z,3.28
2022-11-21T07:21:21.953Z,3.60
2022-11-21T07:23:49.678Z,3.55
2022-11-21T07:26:17.443Z,3.30
2022-11-21T07:28:45.144Z,3.40
2022-11-21T07:31:14.480Z,3.25
2022-11-21T07:33:44.188Z,2.80
2022-11-21T07:36:13.540Z,2.95
2022-11-21T07:38:42.427Z,2.75
2022-11-21T07:41:10.308Z,3.05
2022-11-21T07:43:37.986Z,2.90
2022-11-21T07:46:05.737Z,3.33
2022-11-21T07:48:34.738Z,3.05
2022-11-21T07:51:05.116Z,3.33
2022-11-21T07:53:32.904Z,2.60
2022-11-21T07:56:00.824Z,2.63
2022-11-21T07:58:28.616Z,2.90
2022-11-21T08:00:56.290Z,2.92
2022-11-21T08:03:25.306Z,2.47
2022-11-21T08:05:54.336Z,2.33
2022-11-21T08:08:21.984Z,2.38
2022-11-21T08:10:51.376Z,3.13
2022-11-21T08:13:19.024Z,2.75
2022-11-21T08:15:46.678Z,2.83
2022-11-21T08:18:16.309Z,3.65
2022-11-21T08:20:44.226Z,2.63
2022-11-21T08:23:13.254Z,2.67
2022-11-21T08:25:42.117Z,2.28
2022-11-21T08:28:12.286Z,2.60
2022-11-21T08:30:41.046Z,2.10
2022-11-21T08:33:08.825Z,2.50
2022-11-21T08:35:37.625Z,2.50
2022-11-21T08:38:05.823Z,2.55
2022-11-21T08:40:35.950Z,3.17
2022-11-21T08:43:05.719Z,2.40
2022-11-21T08:45:34.613Z,2.20
2022-11-21T08:48:02.998Z,2.40
2022-11-21T08:50:31.962Z,2.35
2022-11-21T08:53:01.626Z,2.45
2022-11-21T08:55:29.397Z,2.45
2022-11-21T08:57:58.436Z,2.58
2022-11-21T09:00:26.384Z,1.90
2022-11-21T09:02:54.113Z,2.35
2022-11-21T09:05:21.932Z,2.72
2022-11-21T09:07:49.645Z,2.28
2022-11-21T09:10:17.441Z,3.03
2022-11-21T09:12:45.136Z,2.70
2022-11-21T09:15:31.642Z,2.55
2022-11-21T09:18:04.958Z,2.40
2022-11-21T09:20:34.064Z,2.25
2022-11-21T09:23:05.435Z,2.10
2022-11-21T09:25:33.126Z,2.00
2022-11-21T09:28:01.558Z,2.17
2022-11-21T09:30:30.724Z,2.05
2022-11-21T09:33:01.327Z,1.95
2022-11-21T09:35:29.263Z,2.05
2022-11-21T09:37:57.085Z,2.20
2022-11-21T09:40:25.458Z,1.92
2022-11-21T09:43:08.163Z,1.77
2022-11-21T09:45:45.853Z,2.13
2022-11-21T09:48:17.005Z,1.90
2022-11-21T09:50:53.602Z,1.95
2022-11-21T09:53:25.353Z,2.10
2022-11-21T09:55:59.057Z,2.15
2022-11-21T09:58:32.572Z,2.20
2022-11-21T10:01:02.057Z,2.13
2022-11-21T10:03:32.701Z,2.08
2022-11-21T10:06:04.878Z,2.55
2022-11-21T10:08:42.676Z,2.30
2022-11-21T10:11:22.504Z,2.03
2022-11-21T10:14:14.085Z,2.40
2022-11-21T10:16:50.657Z,2.33
2022-11-21T10:19:48.849Z,2.55
2022-11-21T10:22:38.249Z,2.53
2022-11-21T10:25:14.694Z,2.60
2022-11-21T10:27:48.493Z,2.22
2022-11-21T10:30:18.379Z,2.67
2022-11-21T10:32:50.725Z,2.40
2022-11-21T10:35:22.976Z,3.08
2022-11-21T10:37:53.491Z,2.33
2022-11-21T10:40:38.039Z,2.28
2022-11-21T10:43:33.393Z,2.65
2022-11-21T10:46:01.067Z,2.20
2022-11-21T10:48:30.137Z,2.40
2022-11-21T10:51:20.019Z,2.58
2022-11-21T10:54:08.091Z,1.92
2022-11-21T10:56:38.082Z,2.10
2022-11-21T10:59:25.680Z,2.30
2022-11-21T11:01:57.981Z,1.77
2022-11-21T11:04:43.954Z,1.80
2022-11-21T11:07:25.736Z,2.38
2022-11-21T11:09:54.436Z,2.03
2022-11-21T11:12:47.095Z,2.03
2022-11-21T11:15:20.275Z,3.13
2022-11-21T11:17:52.726Z,2.42
2022-11-21T11:20:35.559Z,2.03
2022-11-21T11:23:17.615Z,2.05
2022-11-21T11:25:49.814Z,2.03
2022-11-21T11:28:19.265Z,2.42
2022-11-21T11:30:48.277Z,2.00
2022-11-21T11:33:36.689Z,2.00
2022-11-21T11:36:13.921Z,2.67
2022-11-21T11:38:45.060Z,2.05
2022-11-21T11:41:23.721Z,2.85
2022-11-21T11:44:21.963Z,1.90
2022-11-21T11:47:17.974Z,2.22
2022-11-21T11:50:07.421Z,2.40
2022-11-21T11:52:44.345Z,2.45
2022-11-21T11:55:19.910Z,1.70
2022-11-21T11:57:49.301Z,2.25
2022-11-21T12:00:28.172Z,3.90
2022-11-21T12:03:02.326Z,2.20
2022-11-21T12:05:31.898Z,2.03
2022-11-21T12:11:26.120Z,2.17
2022-11-21T12:13:55.661Z,2.42
2022-11-21T12:16:27.869Z,2.20
2022-11-21T12:19:01.030Z,2.53
2022-11-21T12:21:29.957Z,1.98
2022-11-21T12:23:59.938Z,1.90
2022-11-21T12:26:37.438Z,1.80
2022-11-21T12:29:17.013Z,2.40
2022-11-21T12:32:05.338Z,2.15
2022-11-21T12:34:48.770Z,1.67
2022-11-21T12:37:29.256Z,1.83
2022-11-21T12:40:05.354Z,1.48
2022-11-21T12:42:51.320Z,1.50
2022-11-21T12:45:32.277Z,2.33
2022-11-21T12:48:40.164Z,1.40
2022-11-21T12:51:54.249Z,2.30
2022-11-21T12:54:42.064Z,1.45
2022-11-21T12:57:13.061Z,1.90
2022-11-21T12:59:51.754Z,1.42
2022-11-21T13:02:29.861Z,1.30
2022-11-21T13:04:59.335Z,1.77
2022-11-21T13:07:30.777Z,1.58
2022-11-21T13:10:01.766Z,1.63
2022-11-21T13:12:39.609Z,1.27
2022-11-21T13:15:19.369Z,1.95
2022-11-21T13:17:53.009Z,1.50
2022-11-21T13:20:28.331Z,1.90
2022-11-21T13:22:58.576Z,1.60
2022-11-21T13:25:48.841Z,1.30
2022-11-21T13:28:37.580Z,1.75
2022-11-21T13:31:29.118Z,1.63
2022-11-21T13:33:57.106Z,1.80
2022-11-21T13:36:52.037Z,2.15
2022-11-21T13:39:31.046Z,1.80
2022-11-21T13:42:30.621Z,2.13
2022-11-21T13:45:20.684Z,1.67
2022-11-21T13:48:18.672Z,1.80
2022-11-21T13:51:28.581Z,1.52
2022-11-21T13:54:19.228Z,1.65
2022-11-21T13:57:05.807Z,1.75
2022-11-21T13:59:52.294Z,2.05
2022-11-21T14:02:44.841Z,2.27
2022-11-21T14:05:35.210Z,2.10
2022-11-21T14:08:15.332Z,2.00
2022-11-21T14:10:43.120Z,1.73
2022-11-21T14:13:24.305Z,2.00
2022-11-21T14:16:06.379Z,2.00
2022-11-21T14:18:39.436Z,2.00
2022-11-21T14:21:09.151Z,1.65
2022-11-21T14:23:37.647Z,1.77
2022-11-21T14:26:12.573Z,2.00
2022-11-21T14:28:40.237Z,2.10
2022-11-21T14:31:09.894Z,1.92
2022-11-21T14:33:40.024Z,1.80
2022-11-21T14:36:10.686Z,1.52
2022-11-21T14:38:43.760Z,1.40
2022-11-21T14:41:29.745Z,1.67
2022-11-21T14:44:15.146Z,1.95
2022-11-21T14:46:43.883Z,1.80
2022-11-21T14:49:20.624Z,2.00
2022-11-21T14:51:50.972Z,2.05
2022-11-21T14:54:20.830Z,1.83
2022-11-21T14:56:50.265Z,1.92
2022-11-21T14:59:25.857Z,1.90
2022-11-21T15:01:58.533Z,2.00
2022-11-21T15:04:32.298Z,1.98
2022-11-21T15:07:00.663Z,1.73
2022-11-21T15:10:26.154Z,2.15
2022-11-21T15:12:24.750Z,1.60
2022-11-21T15:14:55.877Z,2.17
2022-11-21T15:17:25.469Z,1.77
2022-11-21T15:20:19.336Z,1.50
2022-11-21T15:22:48.922Z,2.20
2022-11-21T15:25:20.142Z,1.55
2022-11-21T15:27:49.096Z,1.70
2022-11-21T15:30:30.782Z,2.03
2022-11-21T15:33:10.287Z,1.90
2022-11-21T15:35:47.434Z,2.05
2022-11-21T15:38:34.378Z,2.67
2022-11-21T15:41:04.837Z,2.55
2022-11-21T15:43:41.704Z,1.90
2022-11-21T15:48:42.809Z,1.70
2022-11-21T15:51:12.340Z,1.90
2022-11-21T15:53:40.363Z,1.75
2022-11-21T15:56:08.395Z,1.65
2022-11-21T15:58:36.058Z,1.88
2022-11-21T16:01:03.868Z,2.72
2022-11-21T16:03:31.638Z,2.35
2022-11-21T16:05:59.311Z,2.40
2022-11-21T16:08:28.325Z,1.80
2022-11-21T16:10:56.023Z,2.20
2022-11-21T16:13:23.732Z,2.42
2022-11-21T16:15:51.376Z,2.13
2022-11-21T16:18:19.022Z,3.17
2022-11-21T16:20:46.885Z,3.22
2022-11-21T16:23:14.597Z,2.28
2022-11-21T16:25:53.752Z,2.00
2022-11-21T16:28:21.464Z,2.10
2022-11-21T16:30:49.191Z,2.38
2022-11-21T16:33:17.219Z,3.38
2022-11-21T16:35:44.934Z,1.98
2022-11-21T16:38:13.174Z,1.85
2022-11-21T16:40:40.853Z,2.47
2022-11-21T16:43:12.398Z,1.92
2022-11-21T16:45:40.458Z,2.25
2022-11-21T16:48:08.186Z,1.70
2022-11-21T16:50:35.872Z,2.03
2022-11-21T16:53:03.536Z,2.00
2022-11-21T16:55:31.630Z,2.15
2022-11-21T16:57:59.369Z,2.17
2022-11-21T17:00:29.264Z,2.80
2022-11-21T17:02:58.052Z,2.90
2022-11-21T17:05:25.709Z,2.25
2022-11-21T17:07:53.520Z,2.55
2022-11-21T17:10:21.259Z,2.20
2022-11-21T17:12:48.977Z,2.80
2022-11-21T17:15:16.765Z,2.40
2022-11-21T17:17:45.808Z,2.10
2022-11-21T17:20:13.685Z,2.35
2022-11-21T17:22:41.383Z,2.50
2022-11-21T17:25:09.933Z,2.35
2022-11-21T17:27:37.650Z,2.50
2022-11-21T17:30:06.200Z,2.20
2022-11-21T17:32:35.356Z,2.25
2022-11-21T17:35:05.030Z,1.88
2022-11-21T17:37:32.718Z,2.33
2022-11-21T17:40:00.414Z,2.17
2022-11-21T17:42:28.370Z,2.42
2022-11-21T17:44:56.066Z,2.25
2022-11-21T17:47:23.803Z,2.10
2022-11-21T17:49:51.445Z,1.90
2022-11-21T17:52:20.448Z,1.88
2022-11-21T17:54:48.143Z,2.22
2022-11-21T17:57:15.805Z,2.10
2022-11-21T17:59:45.033Z,2.25
2022-11-21T18:02:13.093Z,2.10
2022-11-21T18:04:41.110Z,1.83
2022-11-21T18:07:08.839Z,2.33
2022-11-21T18:09:38.049Z,2.33
2022-11-21T18:12:06.427Z,2.70
2022-11-21T18:14:34.062Z,2.00
2022-11-21T18:17:01.810Z,2.38
2022-11-21T18:19:29.667Z,2.55
2022-11-21T18:21:57.388Z,2.15
2022-11-21T18:24:25.024Z,2.78
2022-11-21T18:26:54.074Z,2.65
2022-11-21T18:29:38.241Z,3.80
2022-11-21T18:32:06.971Z,3.53
2022-11-21T18:34:34.748Z,2.42
2022-11-21T18:37:02.585Z,3.03
2022-11-21T18:39:30.563Z,2.75
2022-11-21T18:41:59.861Z,3.08
2022-11-21T18:44:27.531Z,2.50
2022-11-21T18:46:55.402Z,2.70
2022-11-21T18:49:23.113Z,2.42
2022-11-21T18:51:51.067Z,2.40
2022-11-21T18:54:18.745Z,3.17
2022-11-21T18:56:47.338Z,2.75
2022-11-21T18:59:16.609Z,2.35
2022-11-21T19:01:44.837Z,3.88
2022-11-21T19:04:12.605Z,3.30
2022-11-21T19:06:40.306Z,2.92
2022-11-21T19:09:08.333Z,2.90
2022-11-21T19:11:36.068Z,3.00
2022-11-21T19:14:03.921Z,2.72
2022-11-21T19:16:34.322Z,2.70
2022-11-21T19:21:50.274Z,2.88
2022-11-21T19:24:19.481Z,3.00
2022-11-21T19:26:47.344Z,4.00
2022-11-21T19:29:15.006Z,3.13
2022-11-21T19:31:45.974Z,2.58
2022-11-21T19:34:14.178Z,2.50
2022-11-21T19:36:42.250Z,2.55
2022-11-21T19:39:09.987Z,2.67
2022-11-21T19:41:37.954Z,3.00
2022-11-21T19:44:05.717Z,3.67
2022-11-21T19:46:35.500Z,2.90
2022-11-21T19:49:05.638Z,2.80
2022-11-21T19:51:35.641Z,3.97
2022-11-21T19:54:03.675Z,2.72
2022-11-21T19:56:31.392Z,3.03
2022-11-21T19:58:59.700Z,2.70
2022-11-21T20:01:29.188Z,3.40
2022-11-21T20:03:58.645Z,2.70
2022-11-21T20:06:29.347Z,2.33
2022-11-21T20:08:58.651Z,2.83
2022-11-21T20:11:28.127Z,2.58
2022-11-21T20:13:56.536Z,3.53
2022-11-21T20:16:26.081Z,2.65
2022-11-21T20:18:55.415Z,2.60
2022-11-21T20:21:23.093Z,3.05
2022-11-21T20:23:52.432Z,2.75
2022-11-21T20:26:21.977Z,2.55
2022-11-21T20:28:49.811Z,2.72
2022-11-21T20:31:19.769Z,2.90
2022-11-21T20:33:49.692Z,2.65
2022-11-21T20:36:19.520Z,2.78
2022-11-21T20:38:53.827Z,2.38
2022-11-21T20:41:22.884Z,3.45
2022-11-21T20:46:42.374Z,2.90
2022-11-21T20:49:10.330Z,2.83
2022-11-21T20:54:27.345Z,3.13
2022-11-21T20:56:55.289Z,2.78
2022-11-21T20:59:23.334Z,2.92
2022-11-21T21:01:51.074Z,3.15
2022-11-21T21:04:18.922Z,3.03
2022-11-21T21:06:46.593Z,2.47
2022-11-21T21:09:14.300Z,2.75
2022-11-21T21:11:52.598Z,2.38
2022-11-21T21:14:21.400Z,2.95
2022-11-21T21:16:49.757Z,3.00
2022-11-21T21:19:17.755Z,2.63
2022-11-21T21:21:45.538Z,2.95
2022-11-21T21:24:13.826Z,3.00
2022-11-21T21:26:44.514Z,2.33
2022-11-21T21:29:13.810Z,3.33
2022-11-21T21:31:46.800Z,2.40
2022-11-21T21:34:18.086Z,2.65
2022-11-21T21:36:45.865Z,2.50
2022-11-21T21:39:13.526Z,2.90
2022-11-21T21:41:44.402Z,3.10
2022-11-21T21:44:14.053Z,2.47
2022-11-21T21:46:41.879Z,2.83
2022-11-21T21:49:09.522Z,3.65
2022-11-21T21:51:37.549Z,2.92
2022-11-21T21:54:06.298Z,3.15
2022-11-21T21:56:34.665Z,2.80
2022-11-21T21:59:02.475Z,2.97
2022-11-21T22:01:32.991Z,2.88
2022-11-21T22:04:02.608Z,2.33
2022-11-21T22:06:33.301Z,2.72
2022-11-21T22:09:01.403Z,2.60
2022-11-21T22:11:30.863Z,3.00
2022-11-21T22:14:00.381Z,2.67
2022-11-21T22:16:28.482Z,2.75
2022-11-21T22:18:57.998Z,2.83
2022-11-21T22:21:28.017Z,2.78
2022-11-21T22:24:23.562Z,2.60
2022-11-21T22:26:46.134Z,3.17
2022-11-21T22:29:13.826Z,2.78
2022-11-21T22:31:41.498Z,2.83
2022-11-21T22:34:12.460Z,2.70
2022-11-21T22:36:40.158Z,3.00
2022-11-21T22:39:07.992Z,3.90
2022-11-21T22:41:35.743Z,2.63
2022-11-21T22:44:03.471Z,2.40
2022-11-21T22:46:31.970Z,2.95
2022-11-21T22:49:00.155Z,2.25
2022-11-21T22:51:30.243Z,2.22
2022-11-21T22:53:58.429Z,2.47
2022-11-21T22:56:27.083Z,2.30
2022-11-21T22:58:56.090Z,2.58
2022-11-21T23:01:26.329Z,3.03
2022-11-21T23:03:55.483Z,2.53
2022-11-21T23:06:24.706Z,2.67
2022-11-21T23:08:55.429Z,2.90
2022-11-21T23:11:26.027Z,2.65
2022-11-21T23:13:54.688Z,1.98
2022-11-21T23:16:23.091Z,2.60
2022-11-21T23:18:53.628Z,2.38
2022-11-21T23:21:21.994Z,2.05
2022-11-21T23:23:49.695Z,2.60
2022-11-21T23:26:18.732Z,3.05
2022-11-21T23:28:46.457Z,2.20
2022-11-21T23:31:14.107Z,2.53
2022-11-21T23:33:41.903Z,2.00
2022-11-21T23:36:09.638Z,2.30
2022-11-21T23:38:37.586Z,2.05
2022-11-21T23:41:05.470Z,2.20
2022-11-21T23:43:34.745Z,1.98
2022-11-21T23:46:02.476Z,2.08
2022-11-21T23:48:30.226Z,3.03
2022-11-21T23:50:58.010Z,1.90
2022-11-21T23:53:25.730Z,2.20
2022-11-21T23:55:53.463Z,2.17
2022-11-21T23:58:21.229Z,2.08
